createdAt,value
2022-11-24T00:01:12.186Z,7.36
2022-11-24T00:03:45.290Z,7.33
2022-11-24T00:06:18.372Z,7.20
2022-11-24T00:08:51.318Z,7.34
2022-11-24T00:11:25.926Z,7.36
2022-11-24T00:14:00.424Z,7.28
2022-11-24T00:16:35.215Z,7.27
2022-11-24T00:19:10.232Z,7.32
2022-11-24T00:21:42.979Z,7.37
2022-11-24T00:24:15.718Z,7.43
2022-11-24T00:26:48.591Z,7.44
2022-11-24T00:29:22.626Z,7.39
2022-11-24T00:31:57.654Z,7.44
2022-11-24T00:34:30.578Z,7.43
2022-11-24T00:37:03.346Z,7.52
2022-11-24T00:39:36.101Z,7.50
2022-11-24T00:42:08.836Z,7.54
2022-11-24T00:44:42.917Z,7.54
2022-11-24T00:47:15.925Z,7.43
2022-11-24T00:49:49.017Z,7.43
2022-11-24T00:52:21.750Z,7.40
2022-11-24T00:54:54.461Z,7.28
2022-11-24T00:57:27.313Z,7.32
2022-11-24T01:00:01.413Z,7.30
2022-11-24T01:02:34.212Z,7.27
2022-11-24T01:05:07.912Z,7.30
2022-11-24T01:07:40.672Z,7.24
2022-11-24T01:10:13.402Z,7.19
2022-11-24T01:12:46.142Z,7.33
2022-11-24T01:15:20.394Z,7.22
2022-11-24T01:17:53.142Z,7.19
2022-11-24T01:20:25.860Z,7.21
2022-11-24T01:22:58.718Z,7.23
2022-11-24T01:25:31.446Z,7.04
2022-11-24T01:28:04.220Z,7.21
2022-11-24T01:30:38.306Z,7.23
2022-11-24T01:33:11.135Z,7.17
2022-11-24T01:35:44.190Z,7.19
2022-11-24T01:38:16.911Z,7.15
2022-11-24T01:40:50.262Z,7.18
2022-11-24T01:43:23.439Z,7.09
2022-11-24T01:45:59.985Z,7.15
2022-11-24T01:48:38.174Z,7.20
2022-11-24T01:51:14.684Z,7.20
2022-11-24T01:53:52.967Z,7.22
2022-11-24T01:56:26.549Z,7.20
2022-11-24T01:59:02.440Z,7.30
2022-11-24T02:01:36.606Z,7.31
2022-11-24T02:04:15.328Z,7.32
2022-11-24T02:06:49.169Z,7.28
2022-11-24T02:09:27.180Z,7.37
2022-11-24T02:12:01.985Z,7.35
2022-11-24T02:14:37.813Z,7.31
2022-11-24T02:17:12.335Z,7.40
2022-11-24T02:19:53.042Z,7.42
2022-11-24T02:22:34.656Z,7.42
2022-11-24T02:25:16.484Z,7.56
2022-11-24T02:27:54.056Z,7.57
2022-11-24T02:30:27.515Z,7.59
2022-11-24T02:33:00.241Z,7.62
2022-11-24T02:35:33.492Z,7.53
2022-11-24T02:38:06.408Z,7.77
2022-11-24T02:40:39.802Z,7.68
2022-11-24T02:43:16.278Z,7.71
2022-11-24T02:45:49.267Z,7.71
2022-11-24T02:48:21.989Z,7.62
2022-11-24T02:50:55.060Z,7.76
2022-11-24T02:53:27.772Z,7.72
2022-11-24T02:56:00.538Z,7.67
2022-11-24T02:58:35.007Z,7.67
2022-11-24T03:01:07.856Z,7.54
2022-11-24T03:03:40.756Z,7.53
2022-11-24T03:06:13.770Z,7.56
2022-11-24T03:08:46.479Z,7.45
2022-11-24T03:11:19.408Z,7.42
2022-11-24T03:13:53.734Z,7.39
2022-11-24T03:16:26.581Z,7.35
2022-11-24T03:18:59.520Z,7.39
2022-11-24T03:21:32.437Z,7.35
2022-11-24T03:24:06.101Z,7.40
2022-11-24T03:26:39.035Z,7.30
2022-11-24T03:29:13.395Z,7.30
2022-11-24T03:31:46.274Z,7.37
2022-11-24T03:34:19.230Z,7.38
2022-11-24T03:36:51.963Z,7.47
2022-11-24T03:39:24.797Z,7.44
2022-11-24T03:41:57.507Z,7.49
2022-11-24T03:44:31.844Z,7.49
2022-11-24T03:47:04.832Z,7.59
2022-11-24T03:49:37.600Z,7.61
2022-11-24T03:52:10.426Z,7.66
2022-11-24T03:54:43.364Z,7.56
2022-11-24T03:57:16.276Z,7.60
2022-11-24T03:59:50.446Z,7.63
2022-11-24T04:02:23.268Z,7.68
2022-11-24T04:04:56.104Z,7.69
2022-11-24T04:07:29.002Z,7.51
2022-11-24T04:10:01.936Z,7.68
2022-11-24T04:12:46.979Z,7.82
2022-11-24T04:15:20.551Z,7.83
2022-11-24T04:17:56.276Z,7.78
2022-11-24T04:20:29.165Z,7.82
2022-11-24T04:23:02.661Z,7.80
2022-11-24T04:25:35.550Z,7.92
2022-11-24T04:28:08.336Z,8.01
2022-11-24T04:30:44.525Z,8.23
2022-11-24T04:33:17.621Z,8.04
2022-11-24T04:35:54.136Z,8.02
2022-11-24T04:39:24.143Z,8.00
2022-11-24T04:41:19.729Z,8.02
2022-11-24T04:43:52.815Z,8.11
2022-11-24T04:46:27.344Z,8.17
2022-11-24T04:49:00.100Z,7.94
2022-11-24T04:51:32.941Z,8.26
2022-11-24T04:54:10.207Z,8.20
2022-11-24T04:56:43.923Z,8.35
2022-11-24T04:59:17.011Z,8.32
2022-11-24T05:01:51.251Z,8.44
2022-11-24T05:04:24.588Z,8.25
2022-11-24T05:06:57.464Z,8.34
2022-11-24T05:09:54.967Z,8.32
2022-11-24T05:12:24.468Z,8.03
2022-11-24T05:14:57.264Z,8.01
2022-11-24T05:17:33.244Z,8.13
2022-11-24T05:20:07.922Z,8.11
2022-11-24T05:22:40.815Z,8.09
2022-11-24T05:25:14.259Z,8.01
2022-11-24T05:27:47.053Z,7.82
2022-11-24T05:30:19.911Z,7.92
2022-11-24T05:32:54.060Z,8.01
2022-11-24T05:35:26.834Z,7.99
2022-11-24T05:37:59.926Z,8.00
2022-11-24T05:40:32.906Z,7.74
2022-11-24T05:43:05.670Z,7.93
2022-11-24T05:45:38.561Z,7.84
2022-11-24T05:48:14.749Z,7.80
2022-11-24T05:50:54.192Z,7.78
2022-11-24T05:53:27.299Z,7.78
2022-11-24T05:56:00.286Z,7.72
2022-11-24T05:58:33.032Z,7.70
2022-11-24T06:01:07.311Z,7.72
2022-11-24T06:03:41.513Z,7.58
2022-11-24T06:06:14.271Z,7.73
2022-11-24T06:08:47.044Z,7.76
2022-11-24T06:11:19.961Z,7.75
2022-11-24T06:13:55.500Z,7.79
2022-11-24T06:16:28.426Z,7.79
2022-11-24T06:19:02.678Z,7.80
2022-11-24T06:21:35.482Z,7.81
2022-11-24T06:24:09.224Z,7.76
2022-11-24T06:26:42.104Z,7.83
2022-11-24T06:29:14.867Z,7.81
2022-11-24T06:31:47.712Z,7.80
2022-11-24T06:34:21.870Z,7.82
2022-11-24T06:36:54.737Z,7.86
2022-11-24T06:39:27.656Z,7.90
2022-11-24T06:42:00.390Z,7.93
2022-11-24T06:44:33.391Z,7.88
2022-11-24T06:47:06.654Z,7.96
2022-11-24T06:49:41.137Z,8.00
2022-11-24T06:52:13.970Z,8.01
2022-11-24T06:54:46.703Z,7.78
2022-11-24T06:57:19.471Z,8.04
2022-11-24T06:59:52.230Z,7.94
2022-11-24T07:02:25.086Z,8.08
2022-11-24T07:04:59.192Z,8.07
2022-11-24T07:07:32.038Z,8.01
2022-11-24T07:10:05.443Z,8.07
2022-11-24T07:12:38.236Z,8.08
2022-11-24T07:15:12.401Z,8.25
2022-11-24T07:17:45.139Z,8.29
2022-11-24T07:20:19.511Z,8.31
2022-11-24T07:22:56.149Z,8.33
2022-11-24T07:25:29.300Z,8.39
2022-11-24T07:28:02.225Z,8.15
2022-11-24T07:30:35.340Z,8.35
2022-11-24T07:33:08.084Z,8.51
2022-11-24T07:35:42.199Z,8.48
2022-11-24T07:38:14.980Z,8.30
2022-11-24T07:40:48.003Z,8.70
2022-11-24T07:43:20.745Z,8.59
2022-11-24T07:45:55.629Z,8.58
2022-11-24T07:48:28.753Z,8.37
2022-11-24T07:51:04.211Z,8.68
2022-11-24T07:53:37.903Z,8.32
2022-11-24T07:56:11.045Z,8.66
2022-11-24T07:58:48.316Z,8.66
2022-11-24T08:01:25.705Z,8.68
2022-11-24T08:04:02.392Z,8.65
2022-11-24T08:06:41.904Z,8.72
2022-11-24T08:09:17.390Z,8.59
2022-11-24T08:11:50.213Z,8.73
2022-11-24T08:14:22.968Z,8.72
2022-11-24T08:16:55.773Z,8.73
2022-11-24T08:19:28.627Z,8.72
2022-11-24T08:22:02.786Z,8.74
2022-11-24T08:24:35.888Z,8.71
2022-11-24T08:27:08.863Z,8.73
2022-11-24T08:29:41.744Z,8.76
2022-11-24T08:32:18.970Z,8.75
2022-11-24T08:34:59.648Z,8.73
2022-11-24T08:37:33.807Z,8.73
2022-11-24T08:40:07.847Z,8.69
2022-11-24T08:42:40.720Z,8.72
2022-11-24T08:45:21.043Z,8.71
2022-11-24T08:47:55.014Z,8.62
2022-11-24T08:50:27.803Z,8.63
2022-11-24T08:53:01.978Z,8.60
2022-11-24T08:55:34.877Z,8.65
2022-11-24T08:58:07.739Z,8.62
2022-11-24T09:00:40.516Z,8.66
2022-11-24T09:03:13.710Z,8.66
2022-11-24T09:05:53.679Z,8.51
2022-11-24T09:08:27.823Z,8.47
2022-11-24T09:11:01.502Z,8.70
2022-11-24T09:13:34.563Z,8.76
2022-11-24T09:16:10.441Z,8.61
2022-11-24T09:18:43.487Z,8.68
2022-11-24T09:21:18.126Z,8.66
2022-11-24T09:23:53.886Z,8.62
2022-11-24T09:26:29.049Z,8.41
2022-11-24T09:29:03.508Z,8.68
2022-11-24T09:31:39.078Z,8.80
2022-11-24T09:34:14.726Z,8.88
2022-11-24T09:36:47.525Z,8.81
2022-11-24T09:39:21.809Z,8.91
2022-11-24T09:42:16.025Z,8.84
2022-11-24T09:45:12.477Z,8.89
2022-11-24T09:47:59.084Z,8.93
2022-11-24T09:50:34.931Z,8.89
2022-11-24T09:53:15.520Z,8.61
2022-11-24T09:55:51.793Z,8.85
2022-11-24T09:58:44.098Z,8.88
2022-11-24T10:01:19.004Z,8.98
2022-11-24T10:03:53.588Z,8.98
2022-11-24T10:06:30.465Z,8.68
2022-11-24T10:09:25.375Z,9.09
2022-11-24T10:12:14.252Z,9.05
2022-11-24T10:15:12.326Z,9.07
2022-11-24T10:18:02.908Z,9.17
2022-11-24T10:20:49.781Z,9.13
2022-11-24T10:23:40.766Z,9.20
2022-11-24T10:26:20.341Z,9.23
2022-11-24T10:28:56.362Z,9.01
2022-11-24T10:31:33.738Z,8.99
2022-11-24T10:34:14.356Z,9.28
2022-11-24T10:36:51.182Z,9.21
2022-11-24T10:39:32.059Z,9.25
2022-11-24T10:42:12.191Z,9.24
2022-11-24T10:44:46.479Z,9.07
2022-11-24T10:47:22.537Z,8.97
2022-11-24T10:49:59.506Z,9.14
2022-11-24T10:52:37.748Z,9.22
2022-11-24T10:55:10.937Z,9.25
2022-11-24T10:57:45.099Z,9.32
2022-11-24T11:00:35.826Z,9.42
2022-11-24T11:03:17.790Z,9.43
2022-11-24T11:05:54.802Z,9.15
2022-11-24T11:08:30.145Z,9.59
2022-11-24T11:11:20.517Z,9.64
2022-11-24T11:14:02.929Z,9.52
2022-11-24T11:16:39.623Z,9.69
2022-11-24T11:19:48.353Z,9.72
2022-11-24T11:22:28.177Z,9.67
2022-11-24T11:25:19.376Z,9.84
2022-11-24T11:27:52.184Z,10.15
2022-11-24T11:36:17.432Z,10.04
2022-11-24T11:38:50.274Z,9.86
2022-11-24T11:41:29.283Z,9.85
2022-11-24T11:44:13.055Z,9.89
2022-11-24T11:46:46.769Z,9.94
2022-11-24T11:49:20.987Z,9.89
2022-11-24T11:52:17.560Z,9.94
2022-11-24T11:55:10.770Z,10.07
2022-11-24T11:57:51.536Z,10.36
2022-11-24T12:00:24.833Z,10.57
2022-11-24T12:03:24.445Z,10.74
2022-11-24T12:06:15.242Z,10.62
2022-11-24T12:09:19.128Z,10.44
2022-11-24T12:12:07.282Z,10.27
2022-11-24T12:14:51.419Z,10.68
2022-11-24T12:17:33.423Z,10.53
2022-11-24T12:20:36.533Z,10.63
2022-11-24T12:23:21.559Z,10.74
2022-11-24T12:26:01.530Z,10.78
2022-11-24T12:28:47.008Z,10.71
2022-11-24T12:31:31.227Z,10.75
2022-11-24T12:34:25.400Z,10.45
2022-11-24T12:37:25.361Z,10.53
2022-11-24T12:40:05.776Z,10.55
2022-11-24T12:42:46.335Z,10.65
2022-11-24T12:45:24.097Z,10.76
2022-11-24T12:48:16.295Z,10.45
2022-11-24T12:50:50.908Z,10.40
2022-11-24T12:53:27.118Z,10.85
2022-11-24T12:56:08.875Z,10.77
2022-11-24T12:58:50.218Z,11.16
2022-11-24T13:01:32.648Z,11.23
2022-11-24T13:04:16.212Z,11.10
2022-11-24T13:06:54.790Z,11.08
2022-11-24T13:09:27.595Z,11.25
2022-11-24T13:12:13.210Z,11.28
2022-11-24T13:14:48.862Z,11.47
2022-11-24T13:20:27.109Z,11.57
2022-11-24T13:23:03.357Z,11.27
2022-11-24T13:25:36.975Z,11.39
2022-11-24T13:29:03.175Z,11.49
2022-11-24T13:31:38.875Z,11.59
2022-11-24T13:34:42.509Z,11.58
2022-11-24T13:37:31.221Z,11.46
2022-11-24T13:40:43.136Z,11.28
2022-11-24T13:43:30.019Z,11.56
2022-11-24T13:46:03.682Z,11.17
2022-11-24T13:49:00.883Z,11.48
2022-11-24T13:51:33.677Z,11.43
2022-11-24T13:54:11.340Z,11.71
2022-11-24T13:56:44.120Z,11.72
2022-11-24T13:59:28.800Z,11.63
2022-11-24T14:02:02.025Z,11.48
2022-11-24T14:04:39.352Z,11.73
2022-11-24T14:07:15.443Z,11.58
2022-11-24T14:09:51.620Z,11.75
2022-11-24T14:12:31.265Z,11.85
2022-11-24T14:15:23.263Z,12.01
2022-11-24T14:17:56.310Z,12.22
2022-11-24T14:20:29.943Z,11.78
2022-11-24T14:23:02.728Z,12.04
2022-11-24T14:25:35.887Z,12.08
2022-11-24T14:28:20.931Z,12.16
2022-11-24T14:31:08.060Z,12.08
2022-11-24T14:33:41.153Z,12.41
2022-11-24T14:36:15.807Z,12.27
2022-11-24T14:38:48.629Z,12.12
2022-11-24T14:41:26.004Z,12.80
2022-11-24T14:44:06.862Z,12.65
2022-11-24T14:46:41.621Z,13.25
2022-11-24T14:49:20.072Z,13.13
2022-11-24T14:51:57.287Z,13.33
2022-11-24T14:54:31.735Z,13.29
2022-11-24T14:57:06.438Z,13.39
2022-11-24T14:59:39.480Z,13.07
2022-11-24T15:02:51.929Z,12.52
2022-11-24T15:05:27.244Z,12.25
2022-11-24T15:08:03.486Z,11.93
2022-11-24T15:10:40.608Z,11.37
2022-11-24T15:13:19.330Z,11.61
2022-11-24T15:16:02.052Z,11.37
2022-11-24T15:18:40.396Z,11.28
2022-11-24T15:21:19.253Z,10.92
2022-11-24T15:24:06.826Z,11.01
2022-11-24T15:26:42.219Z,10.88
2022-11-24T15:29:15.277Z,10.60
2022-11-24T15:31:52.557Z,10.61
2022-11-24T15:34:25.759Z,10.53
2022-11-24T15:36:59.843Z,10.35
2022-11-24T15:39:32.570Z,10.16
2022-11-24T15:42:05.663Z,10.13
2022-11-24T15:44:38.597Z,9.76
2022-11-24T15:47:11.456Z,9.83
2022-11-24T15:49:44.301Z,9.65
2022-11-24T15:52:20.499Z,9.75
2022-11-24T15:54:57.141Z,9.56
2022-11-24T15:57:29.879Z,9.59
2022-11-24T16:00:03.406Z,9.43
2022-11-24T16:02:44.973Z,9.21
2022-11-24T16:05:18.746Z,9.15
2022-11-24T16:07:52.924Z,9.14
2022-11-24T16:10:28.731Z,8.94
2022-11-24T16:13:01.625Z,8.94
2022-11-24T16:15:34.713Z,8.83
2022-11-24T16:18:08.636Z,8.77
2022-11-24T16:20:41.555Z,8.78
2022-11-24T16:23:15.676Z,8.65
2022-11-24T16:25:48.638Z,8.50
2022-11-24T16:28:21.588Z,8.25
2022-11-24T16:30:54.438Z,7.99
2022-11-24T16:33:29.111Z,7.97
2022-11-24T16:36:01.875Z,7.85
2022-11-24T16:38:36.118Z,7.96
2022-11-24T16:41:10.204Z,7.93
2022-11-24T16:43:43.275Z,7.72
2022-11-24T16:46:19.693Z,7.70
2022-11-24T16:48:54.885Z,7.51
2022-11-24T16:51:34.405Z,7.54
2022-11-24T16:54:10.107Z,7.55
2022-11-24T16:56:42.968Z,7.45
2022-11-24T16:59:15.735Z,7.33
2022-11-24T17:01:50.646Z,7.40
2022-11-24T17:04:23.446Z,7.34
2022-11-24T17:06:58.271Z,7.07
2022-11-24T17:09:37.358Z,7.02
2022-11-24T17:12:13.087Z,6.96
2022-11-24T17:15:03.052Z,6.98
2022-11-24T17:17:50.000Z,6.84
2022-11-24T17:20:31.677Z,6.77
2022-11-24T17:23:04.450Z,6.65
2022-11-24T17:25:38.553Z,6.69
2022-11-24T17:28:11.510Z,6.57
2022-11-24T17:30:44.298Z,6.45
2022-11-24T17:33:17.396Z,6.48
2022-11-24T17:35:50.191Z,6.42
2022-11-24T17:38:23.269Z,6.33
2022-11-24T17:40:57.417Z,6.31
2022-11-24T17:43:30.277Z,6.17
2022-11-24T17:46:04.743Z,6.19
2022-11-24T17:48:37.885Z,6.08
2022-11-24T17:51:13.246Z,6.02
2022-11-24T17:53:49.202Z,5.92
2022-11-24T17:56:25.036Z,5.88
2022-11-24T17:58:59.935Z,5.91
2022-11-24T18:01:33.060Z,5.89
2022-11-24T18:04:06.185Z,5.94
2022-11-24T18:06:39.191Z,5.91
2022-11-24T18:09:12.237Z,5.85
2022-11-24T18:11:47.667Z,5.85
2022-11-24T18:14:20.447Z,5.81
2022-11-24T18:16:53.398Z,5.80
2022-11-24T18:19:27.568Z,5.81
2022-11-24T18:22:00.329Z,5.98
2022-11-24T18:24:33.507Z,6.03
2022-11-24T18:27:07.656Z,6.34
2022-11-24T18:29:43.423Z,6.48
2022-11-24T18:32:16.314Z,6.54
2022-11-24T18:34:50.943Z,6.71
2022-11-24T18:37:23.741Z,6.58
2022-11-24T18:39:56.622Z,6.77
2022-11-24T18:42:30.950Z,6.76
2022-11-24T18:45:04.265Z,6.83
2022-11-24T18:47:37.072Z,6.99
2022-11-24T18:50:10.523Z,7.02
2022-11-24T18:52:43.285Z,6.93
2022-11-24T18:55:16.328Z,7.05
2022-11-24T18:57:50.508Z,6.97
2022-11-24T19:00:23.928Z,6.89
2022-11-24T19:02:56.869Z,7.13
2022-11-24T19:05:30.039Z,6.91
2022-11-24T19:08:02.910Z,6.97
2022-11-24T19:10:37.212Z,6.90
2022-11-24T19:13:12.807Z,6.92
2022-11-24T19:15:45.606Z,6.89
2022-11-24T19:18:18.529Z,6.84
2022-11-24T19:20:51.549Z,6.70
2022-11-24T19:23:25.264Z,6.79
2022-11-24T19:26:00.861Z,6.74
2022-11-24T19:28:35.455Z,6.69
2022-11-24T19:31:11.275Z,6.77
2022-11-24T19:33:44.355Z,6.76
2022-11-24T19:36:19.388Z,6.73
2022-11-24T19:38:53.683Z,6.71
2022-11-24T19:41:28.457Z,6.63
2022-11-24T19:44:03.180Z,6.66
2022-11-24T19:46:36.065Z,6.58
2022-11-24T19:49:09.472Z,6.62
2022-11-24T19:51:42.287Z,6.65
2022-11-24T19:54:15.121Z,6.57
2022-11-24T19:56:48.258Z,6.60
2022-11-24T19:59:23.475Z,6.51
2022-11-24T20:01:56.558Z,6.57
2022-11-24T20:04:29.447Z,6.57
2022-11-24T20:07:02.362Z,6.57
2022-11-24T20:09:35.540Z,6.55
2022-11-24T20:12:09.729Z,6.56
2022-11-24T20:14:43.890Z,6.51
2022-11-24T20:17:16.744Z,6.49
2022-11-24T20:19:49.513Z,6.57
2022-11-24T20:22:22.302Z,6.51
2022-11-24T20:24:57.095Z,6.54
2022-11-24T20:27:29.863Z,6.53
2022-11-24T20:30:04.460Z,6.57
2022-11-24T20:32:37.586Z,6.55
2022-11-24T20:35:16.619Z,6.53
2022-11-24T20:37:50.925Z,6.45
2022-11-24T20:40:23.738Z,6.40
2022-11-24T20:42:56.544Z,6.50
2022-11-24T20:45:30.986Z,6.47
2022-11-24T20:48:03.917Z,6.34
2022-11-24T20:50:37.906Z,6.32
2022-11-24T20:53:10.782Z,6.19
2022-11-24T20:55:43.632Z,6.26
2022-11-24T20:58:16.445Z,6.17
2022-11-24T21:00:51.055Z,6.17
2022-11-24T21:03:23.933Z,6.11
2022-11-24T21:05:57.581Z,6.04
2022-11-24T21:08:32.960Z,6.00
2022-11-24T21:11:08.089Z,5.90
2022-11-24T21:13:42.848Z,5.90
2022-11-24T21:16:18.465Z,5.83
2022-11-24T21:18:52.748Z,5.77
2022-11-24T21:21:26.704Z,5.63
2022-11-24T21:23:59.905Z,5.55
2022-11-24T21:26:35.120Z,5.57
2022-11-24T21:29:08.971Z,5.48
2022-11-24T21:31:43.415Z,5.39
2022-11-24T21:34:18.518Z,5.42
2022-11-24T21:36:51.298Z,5.48
2022-11-24T21:39:24.089Z,5.44
2022-11-24T21:41:56.871Z,5.36
2022-11-24T21:44:32.098Z,5.35
2022-11-24T21:47:06.901Z,5.28
2022-11-24T21:49:39.779Z,5.26
2022-11-24T21:52:12.551Z,5.32
2022-11-24T21:54:45.340Z,5.34
2022-11-24T21:57:18.438Z,5.26
2022-11-24T21:59:51.345Z,5.24
2022-11-24T22:02:25.500Z,5.18
2022-11-24T22:04:58.372Z,5.04
2022-11-24T22:07:32.168Z,5.13
2022-11-24T22:10:05.680Z,5.06
2022-11-24T22:12:38.453Z,5.05
2022-11-24T22:15:11.731Z,5.01
2022-11-24T22:17:45.901Z,5.03
2022-11-24T22:20:18.718Z,4.94
2022-11-24T22:22:51.503Z,4.96
2022-11-24T22:25:25.451Z,4.96
2022-11-24T22:27:59.078Z,4.88
2022-11-24T22:30:31.931Z,4.83
2022-11-24T22:33:06.191Z,4.90
2022-11-24T22:35:38.959Z,4.87
2022-11-24T22:38:11.725Z,4.86
2022-11-24T22:40:44.836Z,4.77
2022-11-24T22:43:22.698Z,4.73
2022-11-24T22:45:55.846Z,4.80
2022-11-24T22:48:30.103Z,4.75
2022-11-24T22:51:07.795Z,4.79
2022-11-24T22:53:40.892Z,4.71
2022-11-24T22:56:13.799Z,4.72
2022-11-24T22:58:47.068Z,4.66
2022-11-24T23:01:22.337Z,4.71
2022-11-24T23:03:56.729Z,4.73
2022-11-24T23:06:31.768Z,4.75
2022-11-24T23:09:05.072Z,4.77
2022-11-24T23:11:39.452Z,4.83
2022-11-24T23:14:14.788Z,4.75
2022-11-24T23:16:47.628Z,4.80
2022-11-24T23:19:21.752Z,4.86
2022-11-24T23:21:54.523Z,4.91
2022-11-24T23:24:27.294Z,4.93
2022-11-24T23:27:00.052Z,5.04
2022-11-24T23:29:32.890Z,5.14
2022-11-24T23:32:06.200Z,5.10
2022-11-24T23:34:40.787Z,5.11
2022-11-24T23:37:13.588Z,5.13
2022-11-24T23:39:46.547Z,5.20
2022-11-24T23:42:19.470Z,5.21
2022-11-24T23:44:52.291Z,5.22
2022-11-24T23:47:25.081Z,5.20
2022-11-24T23:49:59.253Z,5.19
2022-11-24T23:52:32.077Z,5.11
2022-11-24T23:55:05.634Z,5.25
2022-11-24T23:57:38.611Z,5.29
